sensor_id;sensor_type;location;lat;lon;timestamp;pressure;altitude;pressure_sealevel;temperature;humidity
7940;BME280;4015;48.888;9.226;2023-05-23T00:01:11;159793.75;;;18.11;91.84
7940;BME280;4015;48.888;9.226;2023-05-23T00:03:39;159792.44;;;18.10;91.81
7940;BME280;4015;48.888;9.226;2023-05-23T00:06:05;159779.63;;;18.05;91.92
7940;BME280;4015;48.888;9.226;2023-05-23T00:08:31;159764.25;;;17.99;92.64
7940;BME280;4015;48.888;9.226;2023-05-23T00:10:56;159752.69;;;17.94;93.44
7940;BME280;4015;48.888;9.226;2023-05-23T00:13:21;159710.31;;;17.77;94.22
7940;BME280;4015;48.888;9.226;2023-05-23T00:15:47;159723.16;;;17.83;94.20
7940;BME280;4015;48.888;9.226;2023-05-23T00:18:13;159711.59;;;17.78;94.51
7940;BME280;4015;48.888;9.226;2023-05-23T00:20:40;159718.03;;;17.81;94.65
7940;BME280;4015;48.888;9.226;2023-05-23T00:23:10;159692.31;;;17.70;95.27
7940;BME280;4015;48.888;9.226;2023-05-23T00:25:38;159688.47;;;17.69;95.70
7940;BME280;4015;48.888;9.226;2023-05-23T00:28:05;159676.94;;;17.64;95.87
7940;BME280;4015;48.888;9.226;2023-05-23T00:30:31;159660.25;;;17.58;96.39
7940;BME280;4015;48.888;9.226;2023-05-23T00:32:57;159684.66;;;17.67;95.83
7940;BME280;4015;48.888;9.226;2023-05-23T00:35:24;159682.09;;;17.66;95.81
7940;BME280;4015;48.888;9.226;2023-05-23T00:37:50;159669.25;;;17.61;95.94
7940;BME280;4015;48.888;9.226;2023-05-23T00:40:19;159675.66;;;17.64;96.28
7940;BME280;4015;48.888;9.226;2023-05-23T00:42:44;159683.38;;;17.67;95.75
7940;BME280;4015;48.888;9.226;2023-05-23T00:45:11;159679.47;;;17.65;96.24
7940;BME280;4015;48.888;9.226;2023-05-23T00:47:41;159664.09;;;17.59;96.24
7940;BME280;4015;48.888;9.226;2023-05-23T00:50:12;159666.69;;;17.60;96.65
7940;BME280;4015;48.888;9.226;2023-05-23T00:52:39;159656.41;;;17.56;96.91
7940;BME280;4015;48.888;9.226;2023-05-23T00:55:05;159664.09;;;17.59;96.68
7940;BME280;4015;48.888;9.226;2023-05-23T00:57:32;159657.69;;;17.57;96.66
7940;BME280;4015;48.888;9.226;2023-05-23T00:59:59;159656.41;;;17.56;96.79
7940;BME280;4015;48.888;9.226;2023-05-23T01:02:25;159652.56;;;17.55;96.77
7940;BME280;4015;48.888;9.226;2023-05-23T01:04:52;159643.56;;;17.51;97.15
7940;BME280;4015;48.888;9.226;2023-05-23T01:07:22;159648.69;;;17.53;96.92
7940;BME280;4015;48.888;9.226;2023-05-23T01:09:47;159635.91;;;17.48;97.00
7940;BME280;4015;48.888;9.226;2023-05-23T01:12:30;159643.56;;;17.51;97.15
7940;BME280;4015;48.888;9.226;2023-05-23T01:15:04;159647.41;;;17.52;96.73
7940;BME280;4015;48.888;9.226;2023-05-23T01:17:51;159642.28;;;17.50;96.78
7940;BME280;4015;48.888;9.226;2023-05-23T01:20:24;159628.19;;;17.45;97.13
7940;BME280;4015;48.888;9.226;2023-05-23T01:26:02;159603.84;;;17.35;97.80
7940;BME280;4015;48.888;9.226;2023-05-23T01:28:36;159611.50;;;17.38;97.61
7940;BME280;4015;48.888;9.226;2023-05-23T01:31:03;159605.13;;;17.36;97.56
7940;BME280;4015;48.888;9.226;2023-05-23T01:33:30;159597.41;;;17.33;97.91
7940;BME280;4015;48.888;9.226;2023-05-23T01:35:57;159585.84;;;17.28;98.26
7940;BME280;4015;48.888;9.226;2023-05-23T01:38:25;159597.41;;;17.33;97.59
7940;BME280;4015;48.888;9.226;2023-05-23T01:40:50;159614.06;;;17.39;97.71
7940;BME280;4015;48.888;9.226;2023-05-23T01:43:16;159614.06;;;17.39;97.64
7940;BME280;4015;48.888;9.226;2023-05-23T01:45:42;159617.91;;;17.41;97.63
7940;BME280;4015;48.888;9.226;2023-05-23T01:48:08;159611.50;;;17.38;97.46
7940;BME280;4015;48.888;9.226;2023-05-23T01:50:34;159624.34;;;17.43;97.46
7940;BME280;4015;48.888;9.226;2023-05-23T01:53:00;159619.22;;;17.41;97.44
7940;BME280;4015;48.888;9.226;2023-05-23T01:55:26;159639.75;;;17.49;96.94
7940;BME280;4015;48.888;9.226;2023-05-23T01:57:54;159615.34;;;17.40;97.49
7940;BME280;4015;48.888;9.226;2023-05-23T02:00:20;159602.50;;;17.35;97.66
7940;BME280;4015;48.888;9.226;2023-05-23T02:02:46;159583.28;;;17.27;98.30
7940;BME280;4015;48.888;9.226;2023-05-23T02:05:11;159593.56;;;17.31;98.18
7940;BME280;4015;48.888;9.226;2023-05-23T02:07:36;159589.72;;;17.30;98.08
7940;BME280;4015;48.888;9.226;2023-05-23T02:10:03;159617.91;;;17.41;97.43
7940;BME280;4015;48.888;9.226;2023-05-23T02:12:28;159611.50;;;17.38;97.58
7940;BME280;4015;48.888;9.226;2023-05-23T02:14:54;159608.94;;;17.37;97.56
7940;BME280;4015;48.888;9.226;2023-05-23T02:17:20;159608.94;;;17.37;97.76
7940;BME280;4015;48.888;9.226;2023-05-23T02:19:46;159615.34;;;17.40;97.41
7940;BME280;4015;48.888;9.226;2023-05-23T02:22:12;159615.34;;;17.40;97.56
7940;BME280;4015;48.888;9.226;2023-05-23T02:24:38;159641.00;;;17.50;96.79
7940;BME280;4015;48.888;9.226;2023-05-23T02:27:03;159635.91;;;17.48;97.26
7940;BME280;4015;48.888;9.226;2023-05-23T02:29:29;159682.09;;;17.66;96.40
7940;BME280;4015;48.888;9.226;2023-05-23T02:31:54;159669.25;;;17.61;96.44
7940;BME280;4015;48.888;9.226;2023-05-23T02:34:19;159666.69;;;17.60;96.38
7940;BME280;4015;48.888;9.226;2023-05-23T02:36:45;159687.22;;;17.68;96.02
7940;BME280;4015;48.888;9.226;2023-05-23T02:39:10;159700.09;;;17.73;95.53
7940;BME280;4015;48.888;9.226;2023-05-23T02:41:35;159691.03;;;17.70;95.73
7940;BME280;4015;48.888;9.226;2023-05-23T02:44:01;159702.66;;;17.74;95.58
7940;BME280;4015;48.888;9.226;2023-05-23T02:46:26;159696.19;;;17.72;95.44
7940;BME280;4015;48.888;9.226;2023-05-23T02:48:52;159702.66;;;17.74;95.78
7940;BME280;4015;48.888;9.226;2023-05-23T02:51:17;159683.38;;;17.67;95.95
7940;BME280;4015;48.888;9.226;2023-05-23T02:53:42;159694.94;;;17.71;95.60
7940;BME280;4015;48.888;9.226;2023-05-23T02:56:08;159694.94;;;17.71;95.78
7940;BME280;4015;48.888;9.226;2023-05-23T02:58:34;159698.81;;;17.73;95.30
7940;BME280;4015;48.888;9.226;2023-05-23T03:01:03;159698.81;;;17.73;95.57
7940;BME280;4015;48.888;9.226;2023-05-23T03:03:29;159687.22;;;17.68;95.82
7940;BME280;4015;48.888;9.226;2023-05-23T03:05:56;159696.19;;;17.72;95.42
7940;BME280;4015;48.888;9.226;2023-05-23T03:08:22;159679.47;;;17.65;96.03
7940;BME280;4015;48.888;9.226;2023-05-23T03:10:47;159678.19;;;17.65;95.99
7940;BME280;4015;48.888;9.226;2023-05-23T03:13:13;159687.22;;;17.68;95.90
7940;BME280;4015;48.888;9.226;2023-05-23T03:15:38;159694.94;;;17.71;95.39
7940;BME280;4015;48.888;9.226;2023-05-23T03:18:03;159716.75;;;17.80;94.90
7940;BME280;4015;48.888;9.226;2023-05-23T03:20:29;159720.59;;;17.82;94.76
7940;BME280;4015;48.888;9.226;2023-05-23T03:22:54;159719.31;;;17.81;94.54
7940;BME280;4015;48.888;9.226;2023-05-23T03:25:19;159703.94;;;17.75;94.90
7940;BME280;4015;48.888;9.226;2023-05-23T03:27:45;159710.31;;;17.77;94.67
7940;BME280;4015;48.888;9.226;2023-05-23T03:30:10;159691.03;;;17.70;95.07
7940;BME280;4015;48.888;9.226;2023-05-23T03:32:36;159709.03;;;17.77;94.62
7940;BME280;4015;48.888;9.226;2023-05-23T03:35:01;159716.75;;;17.80;94.32
7940;BME280;4015;48.888;9.226;2023-05-23T03:37:27;159685.94;;;17.68;94.63
7940;BME280;4015;48.888;9.226;2023-05-23T03:39:52;159692.31;;;17.70;94.65
7940;BME280;4015;48.888;9.226;2023-05-23T03:42:17;159684.66;;;17.67;94.70
7940;BME280;4015;48.888;9.226;2023-05-23T03:44:42;159698.81;;;17.73;94.45
7940;BME280;4015;48.888;9.226;2023-05-23T03:47:08;159698.81;;;17.73;94.16
7940;BME280;4015;48.888;9.226;2023-05-23T03:49:33;159687.22;;;17.68;94.45
7940;BME280;4015;48.888;9.226;2023-05-23T03:51:59;159705.22;;;17.75;94.08
7940;BME280;4015;48.888;9.226;2023-05-23T03:54:24;159693.59;;;17.71;94.04
7940;BME280;4015;48.888;9.226;2023-05-23T03:56:50;159682.09;;;17.66;94.35
7940;BME280;4015;48.888;9.226;2023-05-23T03:59:16;159688.47;;;17.69;94.21
7940;BME280;4015;48.888;9.226;2023-05-23T04:01:41;159676.94;;;17.64;94.27
7940;BME280;4015;48.888;9.226;2023-05-23T04:04:06;159678.19;;;17.65;94.61
7940;BME280;4015;48.888;9.226;2023-05-23T04:06:32;159697.47;;;17.72;94.13
7940;BME280;4015;48.888;9.226;2023-05-23T04:08:57;159683.38;;;17.67;94.21
7940;BME280;4015;48.888;9.226;2023-05-23T04:11:23;159700.09;;;17.73;93.84
7940;BME280;4015;48.888;9.226;2023-05-23T04:13:48;159692.31;;;17.70;93.53
7940;BME280;4015;48.888;9.226;2023-05-23T04:16:14;159694.94;;;17.71;94.09
7940;BME280;4015;48.888;9.226;2023-05-23T04:18:39;159701.38;;;17.74;93.91
7940;BME280;4015;48.888;9.226;2023-05-23T04:21:04;159707.75;;;17.76;93.55
7940;BME280;4015;48.888;9.226;2023-05-23T04:23:30;159718.03;;;17.81;93.42
7940;BME280;4015;48.888;9.226;2023-05-23T04:25:55;159729.59;;;17.85;93.06
7940;BME280;4015;48.888;9.226;2023-05-23T04:28:22;159720.59;;;17.82;93.36
7940;BME280;4015;48.888;9.226;2023-05-23T04:30:47;159728.28;;;17.85;92.96
7940;BME280;4015;48.888;9.226;2023-05-23T04:33:13;159701.38;;;17.74;93.39
7940;BME280;4015;48.888;9.226;2023-05-23T04:35:39;159702.66;;;17.74;93.43
7940;BME280;4015;48.888;9.226;2023-05-23T04:38:05;159694.94;;;17.71;93.57
7940;BME280;4015;48.888;9.226;2023-05-23T04:40:30;159714.22;;;17.79;93.28
7940;BME280;4015;48.888;9.226;2023-05-23T04:42:56;159707.75;;;17.76;93.69
7940;BME280;4015;48.888;9.226;2023-05-23T04:45:22;159712.88;;;17.78;93.29
7940;BME280;4015;48.888;9.226;2023-05-23T04:47:47;159734.72;;;17.87;93.09
7940;BME280;4015;48.888;9.226;2023-05-23T04:50:12;159757.78;;;17.96;92.55
7940;BME280;4015;48.888;9.226;2023-05-23T04:52:41;159756.50;;;17.96;92.36
7940;BME280;4015;48.888;9.226;2023-05-23T04:55:07;159757.78;;;17.96;92.30
7940;BME280;4015;48.888;9.226;2023-05-23T04:57:36;159751.41;;;17.94;92.19
7940;BME280;4015;48.888;9.226;2023-05-23T05:00:02;159755.22;;;17.95;92.41
7940;BME280;4015;48.888;9.226;2023-05-23T05:02:31;159751.41;;;17.94;92.52
7940;BME280;4015;48.888;9.226;2023-05-23T05:04:59;159796.31;;;18.12;92.22
7940;BME280;4015;48.888;9.226;2023-05-23T05:07:24;159870.72;;;18.41;90.54
7940;BME280;4015;48.888;9.226;2023-05-23T05:09:50;159855.31;;;18.35;90.22
7940;BME280;4015;48.888;9.226;2023-05-23T05:12:15;159838.63;;;18.28;90.57
7940;BME280;4015;48.888;9.226;2023-05-23T05:14:40;159916.91;;;18.59;89.57
7940;BME280;4015;48.888;9.226;2023-05-23T05:17:06;159922.09;;;18.62;89.03
7940;BME280;4015;48.888;9.226;2023-05-23T05:19:32;159861.75;;;18.38;89.97
7940;BME280;4015;48.888;9.226;2023-05-23T05:21:57;159887.41;;;18.48;89.59
7940;BME280;4015;48.888;9.226;2023-05-23T05:24:24;159932.31;;;18.66;88.89
7940;BME280;4015;48.888;9.226;2023-05-23T05:26:49;159907.97;;;18.56;88.74
7940;BME280;4015;48.888;9.226;2023-05-23T05:29:14;159922.09;;;18.62;88.97
7940;BME280;4015;48.888;9.226;2023-05-23T05:31:40;159937.53;;;18.68;88.57
7940;BME280;4015;48.888;9.226;2023-05-23T05:34:06;160005.56;;;18.95;87.74
7940;BME280;4015;48.888;9.226;2023-05-23T05:36:31;159999.16;;;18.92;87.25
7940;BME280;4015;48.888;9.226;2023-05-23T05:38:57;159979.88;;;18.84;87.53
7940;BME280;4015;48.888;9.226;2023-05-23T05:41:22;160001.72;;;18.93;87.21
7940;BME280;4015;48.888;9.226;2023-05-23T05:43:47;160046.66;;;19.11;86.62
7940;BME280;4015;48.888;9.226;2023-05-23T05:46:13;160059.47;;;19.16;85.41
7940;BME280;4015;48.888;9.226;2023-05-23T05:48:38;160037.66;;;19.07;86.54
7940;BME280;4015;48.888;9.226;2023-05-23T05:51:04;160053.06;;;19.13;86.95
7940;BME280;4015;48.888;9.226;2023-05-23T05:53:29;160085.16;;;19.26;86.01
7940;BME280;4015;48.888;9.226;2023-05-23T05:55:54;160035.09;;;19.06;86.87
7940;BME280;4015;48.888;9.226;2023-05-23T05:58:20;160013.25;;;18.98;87.18
7940;BME280;4015;48.888;9.226;2023-05-23T06:00:46;160003.00;;;18.94;86.99
7940;BME280;4015;48.888;9.226;2023-05-23T06:03:12;159983.75;;;18.86;86.24
7940;BME280;4015;48.888;9.226;2023-05-23T06:05:38;159997.84;;;18.92;86.74
7940;BME280;4015;48.888;9.226;2023-05-23T06:08:03;160060.75;;;19.17;85.65
7940;BME280;4015;48.888;9.226;2023-05-23T06:10:29;160064.63;;;19.18;85.60
7940;BME280;4015;48.888;9.226;2023-05-23T06:12:55;160073.59;;;19.22;85.10
7940;BME280;4015;48.888;9.226;2023-05-23T06:15:20;160059.47;;;19.16;85.22
7940;BME280;4015;48.888;9.226;2023-05-23T06:17:45;160064.63;;;19.18;85.44
7940;BME280;4015;48.888;9.226;2023-05-23T06:20:11;160091.56;;;19.29;84.91
7940;BME280;4015;48.888;9.226;2023-05-23T06:22:36;160121.09;;;19.40;84.89
7940;BME280;4015;48.888;9.226;2023-05-23T06:25:02;160217.47;;;19.79;83.92
7940;BME280;4015;48.888;9.226;2023-05-23T06:27:27;160297.09;;;20.10;81.63
7940;BME280;4015;48.888;9.226;2023-05-23T06:29:53;160282.97;;;20.05;81.33
7940;BME280;4015;48.888;9.226;2023-05-23T06:32:18;160232.88;;;19.85;81.78
7940;BME280;4015;48.888;9.226;2023-05-23T06:34:43;160207.22;;;19.75;82.85
7940;BME280;4015;48.888;9.226;2023-05-23T06:37:09;160203.34;;;19.73;82.75
7940;BME280;4015;48.888;9.226;2023-05-23T06:39:34;160230.31;;;19.84;82.47
7940;BME280;4015;48.888;9.226;2023-05-23T06:41:59;160223.91;;;19.81;82.55
7940;BME280;4015;48.888;9.226;2023-05-23T06:44:25;160222.63;;;19.81;82.54
7940;BME280;4015;48.888;9.226;2023-05-23T06:46:51;160194.38;;;19.70;83.06
7940;BME280;4015;48.888;9.226;2023-05-23T06:49:24;160117.25;;;19.39;83.83
7940;BME280;4015;48.888;9.226;2023-05-23T06:51:50;160109.59;;;19.36;83.51
7940;BME280;4015;48.888;9.226;2023-05-23T06:54:16;160162.22;;;19.57;84.09
7940;BME280;4015;48.888;9.226;2023-05-23T06:56:41;160142.97;;;19.49;82.75
7940;BME280;4015;48.888;9.226;2023-05-23T06:59:07;160164.81;;;19.58;82.93
7940;BME280;4015;48.888;9.226;2023-05-23T07:01:32;160133.97;;;19.46;83.51
7940;BME280;4015;48.888;9.226;2023-05-23T07:03:57;160099.28;;;19.32;84.61
7940;BME280;4015;48.888;9.226;2023-05-23T07:06:23;160003.00;;;18.94;84.48
7940;BME280;4015;48.888;9.226;2023-05-23T07:08:48;159914.38;;;18.58;85.62
7940;BME280;4015;48.888;9.226;2023-05-23T07:11:13;159874.59;;;18.43;86.28
7940;BME280;4015;48.888;9.226;2023-05-23T07:13:39;159843.81;;;18.30;86.35
7940;BME280;4015;48.888;9.226;2023-05-23T07:16:04;159882.28;;;18.46;85.06
7940;BME280;4015;48.888;9.226;2023-05-23T07:18:30;159845.06;;;18.31;85.33
7940;BME280;4015;48.888;9.226;2023-05-23T07:20:55;159857.91;;;18.36;84.18
7940;BME280;4015;48.888;9.226;2023-05-23T07:23:22;159868.16;;;18.40;83.26
7940;BME280;4015;48.888;9.226;2023-05-23T07:25:48;159897.69;;;18.52;83.42
7940;BME280;4015;48.888;9.226;2023-05-23T07:28:13;159924.66;;;18.63;82.46
7940;BME280;4015;48.888;9.226;2023-05-23T07:30:41;159981.16;;;18.85;81.82
7940;BME280;4015;48.888;9.226;2023-05-23T07:33:06;160053.06;;;19.13;80.05
7940;BME280;4015;48.888;9.226;2023-05-23T07:35:32;160046.66;;;19.11;80.30
7940;BME280;4015;48.888;9.226;2023-05-23T07:37:57;160135.25;;;19.46;79.05
7940;BME280;4015;48.888;9.226;2023-05-23T07:40:23;160191.81;;;19.69;77.64
7940;BME280;4015;48.888;9.226;2023-05-23T07:42:48;160217.47;;;19.79;77.18
7940;BME280;4015;48.888;9.226;2023-05-23T07:45:14;160214.91;;;19.78;76.49
7940;BME280;4015;48.888;9.226;2023-05-23T07:47:40;160209.78;;;19.76;77.10
7940;BME280;4015;48.888;9.226;2023-05-23T07:50:06;160384.53;;;20.45;74.04
7940;BME280;4015;48.888;9.226;2023-05-23T07:52:31;160731.63;;;21.83;69.43
7940;BME280;4015;48.888;9.226;2023-05-23T07:54:57;160794.63;;;22.07;67.69
7940;BME280;4015;48.888;9.226;2023-05-23T07:57:23;160759.94;;;21.94;68.25
7940;BME280;4015;48.888;9.226;2023-05-23T07:59:52;160837.09;;;22.24;67.71
7940;BME280;4015;48.888;9.226;2023-05-23T08:02:18;160627.47;;;21.41;70.13
7940;BME280;4015;48.888;9.226;2023-05-23T08:04:44;160507.91;;;20.94;70.82
7940;BME280;4015;48.888;9.226;2023-05-23T08:07:10;160336.94;;;20.26;72.10
7940;BME280;4015;48.888;9.226;2023-05-23T08:09:37;160245.72;;;19.90;74.29
7940;BME280;4015;48.888;9.226;2023-05-23T08:12:04;160270.16;;;20.00;75.66
7940;BME280;4015;48.888;9.226;2023-05-23T08:14:30;160313.81;;;20.17;74.24
7940;BME280;4015;48.888;9.226;2023-05-23T08:16:55;160372.91;;;20.40;73.70
7940;BME280;4015;48.888;9.226;2023-05-23T08:19:20;160504.03;;;20.92;71.42
7940;BME280;4015;48.888;9.226;2023-05-23T08:21:46;160516.88;;;20.97;69.69
7940;BME280;4015;48.888;9.226;2023-05-23T08:24:11;160478.34;;;20.82;71.49
7940;BME280;4015;48.888;9.226;2023-05-23T08:26:37;160470.59;;;20.79;70.40
7940;BME280;4015;48.888;9.226;2023-05-23T08:29:03;160383.22;;;20.44;71.35
7940;BME280;4015;48.888;9.226;2023-05-23T08:31:28;160303.56;;;20.13;72.09
7940;BME280;4015;48.888;9.226;2023-05-23T08:33:54;160298.38;;;20.11;73.88
7940;BME280;4015;48.888;9.226;2023-05-23T08:36:19;160491.22;;;20.87;72.20
7940;BME280;4015;48.888;9.226;2023-05-23T08:38:45;160507.91;;;20.94;70.27
7940;BME280;4015;48.888;9.226;2023-05-23T08:41:19;160618.50;;;21.38;69.93
7940;BME280;4015;48.888;9.226;2023-05-23T08:43:45;160700.78;;;21.70;67.59
7940;BME280;4015;48.888;9.226;2023-05-23T08:46:11;160559.31;;;21.14;69.18
7940;BME280;4015;48.888;9.226;2023-05-23T08:48:38;160561.88;;;21.15;69.25
7940;BME280;4015;48.888;9.226;2023-05-23T08:51:04;160695.59;;;21.68;67.58
7940;BME280;4015;48.888;9.226;2023-05-23T08:53:31;160545.16;;;21.09;70.12
7940;BME280;4015;48.888;9.226;2023-05-23T08:56:01;160393.50;;;20.48;71.07
7940;BME280;4015;48.888;9.226;2023-05-23T08:58:30;160230.31;;;19.84;73.70
7940;BME280;4015;48.888;9.226;2023-05-23T09:00:56;160316.41;;;20.18;71.96
7940;BME280;4015;48.888;9.226;2023-05-23T09:03:25;160262.44;;;19.97;72.25
7940;BME280;4015;48.888;9.226;2023-05-23T09:05:55;160313.81;;;20.17;72.57
7940;BME280;4015;48.888;9.226;2023-05-23T09:08:20;160423.06;;;20.60;70.39
7940;BME280;4015;48.888;9.226;2023-05-23T09:10:49;160326.66;;;20.22;71.62
7940;BME280;4015;48.888;9.226;2023-05-23T09:13:16;160344.63;;;20.29;71.85
7940;BME280;4015;48.888;9.226;2023-05-23T09:16:10;160218.75;;;19.79;72.56
7940;BME280;4015;48.888;9.226;2023-05-23T09:18:39;160256.03;;;19.94;72.42
7940;BME280;4015;48.888;9.226;2023-05-23T09:21:05;160200.78;;;19.72;72.86
7940;BME280;4015;48.888;9.226;2023-05-23T09:23:32;160316.41;;;20.18;72.72
7940;BME280;4015;48.888;9.226;2023-05-23T09:26:08;160336.94;;;20.26;71.51
7940;BME280;4015;48.888;9.226;2023-05-23T09:28:34;160324.09;;;20.21;71.79
7940;BME280;4015;48.888;9.226;2023-05-23T09:31:04;160340.78;;;20.28;70.52
7940;BME280;4015;48.888;9.226;2023-05-23T09:33:38;160412.81;;;20.56;70.43
7940;BME280;4015;48.888;9.226;2023-05-23T09:36:05;160519.44;;;20.98;70.42
7940;BME280;4015;48.888;9.226;2023-05-23T09:38:35;160453.91;;;20.72;68.47
7940;BME280;4015;48.888;9.226;2023-05-23T09:41:02;160390.94;;;20.47;70.28
7940;BME280;4015;48.888;9.226;2023-05-23T09:43:27;160271.44;;;20.00;71.22
7940;BME280;4015;48.888;9.226;2023-05-23T09:45:53;160250.84;;;19.92;71.20
7940;BME280;4015;48.888;9.226;2023-05-23T09:48:26;160281.69;;;20.04;71.89
7940;BME280;4015;48.888;9.226;2023-05-23T09:50:52;160303.56;;;20.13;70.63
7940;BME280;4015;48.888;9.226;2023-05-23T09:53:17;160303.56;;;20.13;71.23
7940;BME280;4015;48.888;9.226;2023-05-23T09:55:45;160430.81;;;20.63;68.99
7940;BME280;4015;48.888;9.226;2023-05-23T09:58:12;160451.34;;;20.71;68.44
7940;BME280;4015;48.888;9.226;2023-05-23T10:00:38;160378.03;;;20.42;67.95
7940;BME280;4015;48.888;9.226;2023-05-23T10:03:09;160370.34;;;20.39;67.79
7940;BME280;4015;48.888;9.226;2023-05-23T10:05:50;160509.19;;;20.94;67.93
7940;BME280;4015;48.888;9.226;2023-05-23T10:08:42;160694.31;;;21.68;66.79
7940;BME280;4015;48.888;9.226;2023-05-23T10:13:43;161001.81;;;22.90;62.06
7940;BME280;4015;48.888;9.226;2023-05-23T10:16:16;161013.34;;;22.94;61.30
7940;BME280;4015;48.888;9.226;2023-05-23T10:18:44;160955.44;;;22.71;61.11
7940;BME280;4015;48.888;9.226;2023-05-23T10:21:18;160915.56;;;22.55;61.74
7940;BME280;4015;48.888;9.226;2023-05-23T10:23:45;160765.06;;;21.96;62.88
7940;BME280;4015;48.888;9.226;2023-05-23T10:26:12;160660.88;;;21.54;63.64
7940;BME280;4015;48.888;9.226;2023-05-23T10:28:39;160669.91;;;21.58;63.19
7940;BME280;4015;48.888;9.226;2023-05-23T10:31:05;160586.31;;;21.25;64.14
7940;BME280;4015;48.888;9.226;2023-05-23T10:33:33;160740.59;;;21.86;64.28
7940;BME280;4015;48.888;9.226;2023-05-23T10:36:15;160852.53;;;22.30;62.91
7940;BME280;4015;48.888;9.226;2023-05-23T10:39:03;160786.91;;;22.04;63.78
7940;BME280;4015;48.888;9.226;2023-05-23T10:41:30;160774.03;;;21.99;62.99
7940;BME280;4015;48.888;9.226;2023-05-23T10:44:09;160762.50;;;21.95;62.07
7940;BME280;4015;48.888;9.226;2023-05-23T10:49:18;160808.84;;;22.13;63.72
7940;BME280;4015;48.888;9.226;2023-05-23T10:51:50;160694.31;;;21.68;62.81
7940;BME280;4015;48.888;9.226;2023-05-23T10:54:18;160756.03;;;21.92;62.50
7940;BME280;4015;48.888;9.226;2023-05-23T10:56:47;160839.69;;;22.25;62.60
7940;BME280;4015;48.888;9.226;2023-05-23T10:59:27;160918.13;;;22.56;61.71
7940;BME280;4015;48.888;9.226;2023-05-23T11:01:54;160964.44;;;22.75;60.04
7940;BME280;4015;48.888;9.226;2023-05-23T11:04:27;160860.25;;;22.33;60.46
7940;BME280;4015;48.888;9.226;2023-05-23T11:06:53;160902.72;;;22.50;59.52
7940;BME280;4015;48.888;9.226;2023-05-23T11:09:19;160924.56;;;22.59;59.43
7940;BME280;4015;48.888;9.226;2023-05-23T11:12:05;160923.28;;;22.58;58.89
7940;BME280;4015;48.888;9.226;2023-05-23T11:14:31;160834.53;;;22.23;59.57
7940;BME280;4015;48.888;9.226;2023-05-23T11:19:36;160965.72;;;22.75;58.78
7940;BME280;4015;48.888;9.226;2023-05-23T11:22:02;161245.06;;;23.86;57.52
7940;BME280;4015;48.888;9.226;2023-05-23T11:27:57;161760.34;;;25.90;50.21
7940;BME280;4015;48.888;9.226;2023-05-23T11:30:16;161491.03;;;24.83;52.08
7940;BME280;4015;48.888;9.226;2023-05-23T11:32:49;161385.44;;;24.41;53.96
7940;BME280;4015;48.888;9.226;2023-05-23T11:35:15;161178.09;;;23.59;55.53
7940;BME280;4015;48.888;9.226;2023-05-23T11:37:40;161305.56;;;24.10;56.66
7940;BME280;4015;48.888;9.226;2023-05-23T11:40:25;161274.66;;;23.98;55.23
7940;BME280;4015;48.888;9.226;2023-05-23T11:42:51;161057.13;;;23.11;58.77
7940;BME280;4015;48.888;9.226;2023-05-23T11:45:21;160932.28;;;22.62;59.37
7940;BME280;4015;48.888;9.226;2023-05-23T11:47:46;161050.69;;;23.09;58.78
7940;BME280;4015;48.888;9.226;2023-05-23T11:50:12;160988.88;;;22.84;58.46
7940;BME280;4015;48.888;9.226;2023-05-23T11:52:37;161064.84;;;23.14;57.24
7940;BME280;4015;48.888;9.226;2023-05-23T11:55:03;161036.53;;;23.03;57.00
7940;BME280;4015;48.888;9.226;2023-05-23T11:57:29;160987.59;;;22.84;57.84
7940;BME280;4015;48.888;9.226;2023-05-23T11:59:54;161391.84;;;24.44;55.09
7940;BME280;4015;48.888;9.226;2023-05-23T12:02:20;161505.16;;;24.89;52.71
7940;BME280;4015;48.888;9.226;2023-05-23T12:04:47;161484.56;;;24.81;54.30
7940;BME280;4015;48.888;9.226;2023-05-23T12:07:12;161524.50;;;24.96;54.64
7940;BME280;4015;48.888;9.226;2023-05-23T12:09:42;161506.47;;;24.89;53.10
7940;BME280;4015;48.888;9.226;2023-05-23T12:12:08;161791.22;;;26.02;51.55
7940;BME280;4015;48.888;9.226;2023-05-23T12:14:33;161740.97;;;25.82;50.81
7940;BME280;4015;48.888;9.226;2023-05-23T12:16:59;161893.09;;;26.42;49.67
7940;BME280;4015;48.888;9.226;2023-05-23T12:19:24;161936.91;;;26.59;49.71
7940;BME280;4015;48.888;9.226;2023-05-23T12:21:50;161791.22;;;26.02;49.60
7940;BME280;4015;48.888;9.226;2023-05-23T12:24:17;161467.81;;;24.74;52.71
7940;BME280;4015;48.888;9.226;2023-05-23T12:29:11;161187.13;;;23.63;56.05
7940;BME280;4015;48.888;9.226;2023-05-23T12:31:36;161154.91;;;23.50;57.49
7940;BME280;4015;48.888;9.226;2023-05-23T12:34:02;161265.63;;;23.94;56.97
7940;BME280;4015;48.888;9.226;2023-05-23T12:36:28;161489.69;;;24.83;53.85
7940;BME280;4015;48.888;9.226;2023-05-23T12:39:01;161363.50;;;24.33;54.60
7940;BME280;4015;48.888;9.226;2023-05-23T12:41:27;161340.31;;;24.23;54.36
7940;BME280;4015;48.888;9.226;2023-05-23T12:43:54;161311.97;;;24.12;53.60
7940;BME280;4015;48.888;9.226;2023-05-23T12:46:22;161801.53;;;26.06;51.31
7940;BME280;4015;48.888;9.226;2023-05-23T12:48:47;162119.97;;;27.32;49.84
7940;BME280;4015;48.888;9.226;2023-05-23T12:51:13;162401.22;;;28.43;47.26
7940;BME280;4015;48.888;9.226;2023-05-23T12:53:39;162346.97;;;28.21;46.45
7940;BME280;4015;48.888;9.226;2023-05-23T12:56:05;162144.50;;;27.41;47.66
7940;BME280;4015;48.888;9.226;2023-05-23T12:58:30;161826.03;;;26.16;52.24
7940;BME280;4015;48.888;9.226;2023-05-23T13:00:56;161610.81;;;25.31;51.46
7940;BME280;4015;48.888;9.226;2023-05-23T13:03:22;161205.19;;;23.70;55.13
7940;BME280;4015;48.888;9.226;2023-05-23T13:05:47;161042.97;;;23.06;56.51
7940;BME280;4015;48.888;9.226;2023-05-23T13:08:12;160933.56;;;22.62;59.11
7940;BME280;4015;48.888;9.226;2023-05-23T13:10:38;160923.28;;;22.58;60.32
7940;BME280;4015;48.888;9.226;2023-05-23T13:13:04;160896.28;;;22.48;58.89
7940;BME280;4015;48.888;9.226;2023-05-23T13:15:29;160821.66;;;22.18;59.11
7940;BME280;4015;48.888;9.226;2023-05-23T13:17:55;160857.69;;;22.32;58.87
7940;BME280;4015;48.888;9.226;2023-05-23T13:20:21;160923.28;;;22.58;59.37
7940;BME280;4015;48.888;9.226;2023-05-23T13:22:46;161028.81;;;23.00;59.13
7940;BME280;4015;48.888;9.226;2023-05-23T13:25:12;161053.25;;;23.10;58.03